Time;durP1;ratioP1;P1;durP2;ratioP2;P2;SDS_P1;SDS_P2;PMS_P1;PMS_P2;Temp;Humidity;BMP_temperature;BMP_pressure;BME280_temperature;BME280_humidity;BME280_pressure;Samples;Min_cycle;Max_cycle;Signal;HPM_P1;HPM_P2
2021/12/23 00:00:46;;;;;;;62.13;23.10;;;-2.00;91.10;;;;;;4978392;28;20521;-78
2021/12/23 00:03:11;;;;;;;51.75;21.25;;;-2.00;91.00;;;;;;4997029;28;20391;-79
2021/12/23 00:05:38;;;;;;;55.17;21.60;;;-2.00;90.90;;;;;;5014630;28;20034;-77
2021/12/23 00:08:05;;;;;;;60.60;25.25;;;-2.00;90.80;;;;;;5026850;28;20132;-77
2021/12/23 00:10:31;;;;;;;54.72;22.10;;;-2.00;90.80;;;;;;5034368;28;20025;-78
2021/12/23 00:12:57;;;;;;;57.80;23.85;;;-2.00;90.80;;;;;;5034089;28;20104;-77
2021/12/23 00:16:17;;;;;;;50.35;23.45;;;-2.10;90.70;;;;;;5034331;28;20079;-78
2021/12/23 00:23:57;;;;;;;59.53;22.15;;;-2.10;90.70;;;;;;5005963;28;20033;-79
2021/12/23 00:26:23;;;;;;;58.97;22.30;;;-2.10;90.80;;;;;;5017069;28;20032;-78
2021/12/23 00:28:51;;;;;;;62.00;25.05;;;-2.10;90.80;;;;;;5016499;28;20018;-78
2021/12/23 00:31:18;;;;;;;64.55;25.25;;;-2.20;90.60;;;;;;5016860;28;20033;-77
2021/12/23 00:33:46;;;;;;;58.53;23.80;;;-2.20;90.60;;;;;;5016270;28;20028;-78
2021/12/23 00:36:14;;;;;;;62.15;25.58;;;-2.20;90.60;;;;;;5033978;28;20029;-78
2021/12/23 00:38:53;;;;;;;55.47;22.92;;;-2.20;90.60;;;;;;5027866;28;20029;-78
2021/12/23 00:41:23;;;;;;;64.25;22.77;;;-2.20;90.60;;;;;;5017993;28;20029;-76
2021/12/23 00:43:50;;;;;;;58.55;22.90;;;-2.20;90.90;;;;;;5034182;28;20074;-77
2021/12/23 00:46:17;;;;;;;52.38;21.27;;;-2.20;90.50;;;;;;5034482;28;20021;-78
2021/12/23 00:48:42;;;;;;;56.17;21.13;;;-2.20;90.40;;;;;;5051372;28;20018;-77
2021/12/23 00:51:11;;;;;;;52.53;22.52;;;-2.20;90.30;;;;;;5031549;28;20518;-78
2021/12/23 00:53:39;;;;;;;51.67;23.10;;;-2.20;90.10;;;;;;5042416;28;20029;-77
2021/12/23 00:56:09;;;;;;;58.22;22.70;;;-2.20;90.10;;;;;;5016964;28;20406;-77
2021/12/23 00:58:36;;;;;;;58.28;23.40;;;-2.20;90.10;;;;;;4999991;28;20104;-76
2021/12/23 01:01:11;;;;;;;58.15;22.55;;;-2.20;90.10;;;;;;5033834;28;20049;-78
2021/12/23 01:03:38;;;;;;;55.83;21.85;;;-2.20;90.00;;;;;;5015739;28;20017;-77
2021/12/23 01:06:04;;;;;;;50.88;22.88;;;-2.30;90.00;;;;;;5015925;28;20471;-78
2021/12/23 01:08:32;;;;;;;48.80;20.75;;;-2.30;90.00;;;;;;4984147;28;20125;-78
2021/12/23 01:11:00;;;;;;;50.55;21.05;;;-2.40;90.10;;;;;;5014043;28;20033;-78
2021/12/23 01:13:29;;;;;;;44.28;19.85;;;-2.40;90.20;;;;;;5013594;28;20033;-78
2021/12/23 01:16:05;;;;;;;61.55;22.33;;;-2.40;90.30;;;;;;5014030;28;20080;-79
2021/12/23 01:18:54;;;;;;;58.53;23.83;;;-2.40;90.30;;;;;;4998366;28;20084;-79
2021/12/23 01:21:21;;;;;;;52.40;22.65;;;-2.40;90.30;;;;;;4996127;28;20076;-79
2021/12/23 01:23:53;;;;;;;58.15;25.98;;;-2.50;90.20;;;;;;5013260;28;20026;-78
2021/12/23 01:26:22;;;;;;;59.45;24.40;;;-2.50;90.30;;;;;;4996880;28;20034;-79
2021/12/23 01:28:56;;;;;;;59.03;24.30;;;-2.50;90.30;;;;;;4980552;28;20045;-79
2021/12/23 01:31:25;;;;;;;62.67;25.90;;;-2.50;90.30;;;;;;5013401;28;20435;-78
2021/12/23 01:33:51;;;;;;;66.07;25.58;;;-2.50;90.40;;;;;;4979717;28;20040;-78
2021/12/23 01:36:18;;;;;;;58.70;25.45;;;-2.50;90.40;;;;;;4995960;28;20037;-78
2021/12/23 01:38:45;;;;;;;62.22;25.63;;;-2.60;90.40;;;;;;4989396;28;20380;-78
2021/12/23 01:41:11;;;;;;;67.47;27.60;;;-2.60;90.50;;;;;;5000580;28;20029;-79
2021/12/23 01:43:39;;;;;;;66.45;25.73;;;-2.60;90.60;;;;;;4979724;28;20022;-78
2021/12/23 01:46:04;;;;;;;62.17;24.20;;;-2.60;91.00;;;;;;4963368;28;20553;-77
2021/12/23 01:48:32;;;;;;;61.92;24.67;;;-2.70;90.60;;;;;;4979141;28;20073;-78
2021/12/23 01:51:01;;;;;;;63.35;26.20;;;-2.70;90.60;;;;;;4979316;28;20150;-78
2021/12/23 01:53:29;;;;;;;62.28;24.58;;;-2.70;90.60;;;;;;4979764;28;20038;-77
2021/12/23 01:55:54;;;;;;;60.47;24.65;;;-2.70;90.70;;;;;;5013097;28;20482;-77
2021/12/23 01:58:29;;;;;;;65.07;24.50;;;-2.70;90.70;;;;;;4995520;28;20030;-78
2021/12/23 02:00:56;;;;;;;66.65;25.95;;;-2.80;90.80;;;;;;4996251;28;20112;-78
2021/12/23 02:03:24;;;;;;;56.92;25.08;;;-2.80;90.90;;;;;;5016721;28;20100;-78
2021/12/23 02:05:52;;;;;;;65.53;25.48;;;-2.80;91.40;;;;;;5016816;28;20029;-78
2021/12/23 02:08:17;;;;;;;62.13;26.00;;;-2.80;91.10;;;;;;5031143;28;20033;-78
2021/12/23 02:10:45;;;;;;;62.65;24.77;;;-2.90;91.10;;;;;;5019100;28;20128;-78
2021/12/23 02:13:11;;;;;;;73.03;26.23;;;-2.90;91.10;;;;;;5018747;28;20028;-78
2021/12/23 02:15:39;;;;;;;69.55;26.63;;;-2.90;91.20;;;;;;5036214;28;20112;-78
2021/12/23 02:18:07;;;;;;;59.42;23.60;;;-2.90;91.10;;;;;;5002267;28;20036;-78
2021/12/23 02:20:48;;;;;;;65.97;27.63;;;-2.90;91.10;;;;;;5036560;28;20109;-78
2021/12/23 02:23:20;;;;;;;61.40;25.10;;;-2.90;91.10;;;;;;5036379;28;20394;-78
2021/12/23 02:25:46;;;;;;;68.50;26.38;;;-2.90;91.10;;;;;;5018362;28;20033;-78
2021/12/23 02:28:20;;;;;;;68.60;25.38;;;-3.00;91.20;;;;;;5002097;28;20390;-78
2021/12/23 02:30:55;;;;;;;67.88;24.50;;;-3.00;91.30;;;;;;5018722;28;20121;-78
2021/12/23 02:33:26;;;;;;;47.08;21.05;;;-3.00;91.30;;;;;;5018257;28;20074;-78
2021/12/23 02:35:57;;;;;;;57.45;22.67;;;-3.00;91.50;;;;;;5002537;28;20018;-78
2021/12/23 02:38:24;;;;;;;58.00;22.02;;;-3.00;91.50;;;;;;5015855;28;20079;-76
2021/12/23 02:40:50;;;;;;;52.30;21.15;;;-3.00;91.50;;;;;;5035863;28;20021;-77
2021/12/23 02:43:23;;;;;;;55.90;22.20;;;-3.00;91.60;;;;;;5018071;28;20018;-78
2021/12/23 02:45:53;;;;;;;51.40;19.77;;;-3.00;91.60;;;;;;5036174;28;20017;-78
2021/12/23 02:48:27;;;;;;;47.65;20.35;;;-3.00;91.60;;;;;;5002049;28;20108;-79
2021/12/23 02:50:55;;;;;;;63.60;24.85;;;-2.90;91.50;;;;;;5035928;28;20018;-79
2021/12/23 02:53:21;;;;;;;65.65;26.88;;;-3.00;91.20;;;;;;5035643;28;20037;-79
2021/12/23 02:55:48;;;;;;;63.92;26.05;;;-3.00;91.00;;;;;;5017877;28;20018;-78
2021/12/23 02:58:14;;;;;;;61.40;25.75;;;-3.00;91.00;;;;;;5017874;28;20028;-78
2021/12/23 03:00:43;;;;;;;58.42;24.10;;;-3.10;91.00;;;;;;5018059;28;20026;-78
2021/12/23 03:03:12;;;;;;;62.72;25.95;;;-3.10;90.80;;;;;;5002061;28;20095;-78
2021/12/23 03:05:37;;;;;;;63.00;25.00;;;-3.10;91.20;;;;;;5035524;28;20558;-77
2021/12/23 03:08:05;;;;;;;51.13;22.48;;;-3.10;91.20;;;;;;5035231;28;20057;-79
2021/12/23 03:10:33;;;;;;;57.67;23.65;;;-3.10;91.30;;;;;;5035555;28;20106;-79
2021/12/23 03:13:00;;;;;;;54.67;22.15;;;-3.10;91.40;;;;;;5016925;28;20021;-78
2021/12/23 03:15:27;;;;;;;56.47;21.30;;;-3.10;91.50;;;;;;5001509;28;20475;-77
2021/12/23 03:17:54;;;;;;;51.17;21.13;;;-3.10;91.60;;;;;;5035269;28;20028;-79
2021/12/23 03:20:20;;;;;;;49.05;20.10;;;-3.00;91.60;;;;;;5017341;28;20021;-79
2021/12/23 03:22:48;;;;;;;49.35;21.77;;;-3.00;91.90;;;;;;5017340;28;20029;-78
2021/12/23 03:25:15;;;;;;;52.00;22.92;;;-3.00;91.60;;;;;;5035480;28;20099;-78
2021/12/23 03:27:41;;;;;;;49.60;20.25;;;-3.00;91.50;;;;;;5035286;28;20573;-78
2021/12/23 03:30:08;;;;;;;53.80;19.73;;;-3.00;91.40;;;;;;5035131;28;20486;-78
2021/12/23 03:32:49;;;;;;;41.83;17.92;;;-2.90;91.50;;;;;;5017336;28;20095;-78
2021/12/23 03:35:17;;;;;;;41.88;16.20;;;-2.90;91.50;;;;;;5017051;28;20029;-78
2021/12/23 03:37:44;;;;;;;41.67;17.60;;;-2.90;91.40;;;;;;5035079;28;20026;-78
2021/12/23 03:40:12;;;;;;;36.40;16.08;;;-2.90;91.40;;;;;;5035059;28;20099;-78
2021/12/23 03:42:39;;;;;;;37.08;15.30;;;-2.90;91.30;;;;;;5017259;28;20038;-78
2021/12/23 03:45:08;;;;;;;36.83;16.20;;;-2.80;91.20;;;;;;5034629;28;20029;-79
2021/12/23 03:47:52;;;;;;;30.17;15.32;;;-2.80;91.10;;;;;;5017009;28;20084;-78
2021/12/23 03:50:21;;;;;;;33.65;13.88;;;-2.70;90.90;;;;;;5017033;28;20032;-78
2021/12/23 03:52:47;;;;;;;34.92;14.70;;;-2.80;90.80;;;;;;5017223;28;20513;-79
2021/12/23 03:55:16;;;;;;;30.90;13.48;;;-2.70;90.80;;;;;;5017233;28;20061;-79
2021/12/23 03:57:46;;;;;;;33.60;14.27;;;-2.70;90.50;;;;;;5017039;28;20073;-79
2021/12/23 04:00:16;;;;;;;36.42;14.70;;;-2.70;90.40;;;;;;5016723;28;20486;-78
2021/12/23 04:02:42;;;;;;;29.83;12.98;;;-2.70;90.30;;;;;;5034489;28;20140;-78
2021/12/23 04:05:10;;;;;;;33.97;13.63;;;-2.60;90.30;;;;;;5016630;28;20455;-78
2021/12/23 04:07:41;;;;;;;33.90;14.73;;;-2.60;90.20;;;;;;5016460;28;20068;-78
2021/12/23 04:10:10;;;;;;;34.47;14.65;;;-2.60;90.10;;;;;;5034443;28;20024;-78
2021/12/23 04:12:37;;;;;;;32.00;13.15;;;-2.60;90.40;;;;;;4984066;28;20033;-78
2021/12/23 04:15:05;;;;;;;28.98;13.27;;;-2.50;90.00;;;;;;5000159;28;20091;-77
2021/12/23 04:17:31;;;;;;;27.58;13.27;;;-2.50;89.90;;;;;;5016334;28;20554;-78
2021/12/23 04:20:13;;;;;;;32.78;14.32;;;-2.50;90.20;;;;;;5034102;28;20025;-78
2021/12/23 04:22:41;;;;;;;33.28;14.50;;;-2.50;89.70;;;;;;5019213;28;20037;-78
2021/12/23 04:25:08;;;;;;;25.33;12.55;;;-2.50;89.70;;;;;;5012635;28;20049;-79
2021/12/23 04:27:36;;;;;;;31.23;15.07;;;-2.50;89.80;;;;;;5034174;28;20036;-79
2021/12/23 04:30:05;;;;;;;30.40;15.30;;;-2.50;89.50;;;;;;5034595;28;20023;-79
2021/12/23 04:32:33;;;;;;;35.28;14.35;;;-2.50;89.30;;;;;;5000307;28;20120;-79
2021/12/23 04:34:59;;;;;;;31.45;13.82;;;-2.50;89.00;;;;;;5034301;28;20025;-77
2021/12/23 04:37:26;;;;;;;34.90;14.80;;;-2.50;89.00;;;;;;5033979;28;20041;-79
2021/12/23 04:39:53;;;;;;;38.03;15.90;;;-2.50;88.80;;;;;;5033645;28;20072;-78
2021/12/23 04:42:21;;;;;;;41.53;15.05;;;-2.50;88.80;;;;;;5016635;28;20053;-77
2021/12/23 04:44:49;;;;;;;37.22;15.68;;;-2.50;88.70;;;;;;5015988;28;20025;-77
2021/12/23 04:47:16;;;;;;;36.78;15.57;;;-2.50;88.70;;;;;;5034096;28;20025;-78
2021/12/23 04:49:43;;;;;;;35.88;16.42;;;-2.50;88.90;;;;;;5034276;28;20031;-77
2021/12/23 04:52:11;;;;;;;46.80;19.23;;;-2.50;89.00;;;;;;5036622;28;20025;-77
2021/12/23 04:54:38;;;;;;;43.70;17.65;;;-2.50;89.00;;;;;;5053063;28;20037;-79
2021/12/23 04:57:06;;;;;;;39.63;17.48;;;-2.50;89.60;;;;;;5036000;28;20367;-78
2021/12/23 04:59:32;;;;;;;33.78;15.88;;;-2.50;88.90;;;;;;5042931;28;20021;-78
2021/12/23 05:01:59;;;;;;;39.72;15.88;;;-2.50;88.80;;;;;;5033715;28;20406;-78
2021/12/23 05:04:26;;;;;;;37.47;15.43;;;-2.50;88.60;;;;;;5015910;28;20029;-78
2021/12/23 05:06:53;;;;;;;42.20;16.15;;;-2.50;88.40;;;;;;5033043;28;20035;-78
2021/12/23 05:09:19;;;;;;;41.17;16.05;;;-2.40;88.40;;;;;;5015577;28;20025;-78
2021/12/23 05:11:46;;;;;;;39.33;15.73;;;-2.40;89.20;;;;;;5015528;28;20091;-78
2021/12/23 05:14:12;;;;;;;34.38;16.45;;;-2.40;88.40;;;;;;5015359;28;20025;-78
2021/12/23 05:16:39;;;;;;;41.65;17.02;;;-2.40;88.60;;;;;;5015488;28;20037;-77
2021/12/23 05:19:07;;;;;;;38.97;15.20;;;-2.50;88.50;;;;;;5033125;28;20075;-78
2021/12/23 05:21:35;;;;;;;33.08;12.50;;;-2.40;88.50;;;;;;5033145;28;20109;-77
2021/12/23 05:24:02;;;;;;;23.95;11.68;;;-2.40;88.50;;;;;;5015696;28;20025;-78
2021/12/23 05:26:30;;;;;;;24.50;11.10;;;-2.40;88.70;;;;;;5033163;28;20037;-78
2021/12/23 05:28:57;;;;;;;28.92;10.70;;;-2.30;88.60;;;;;;5033133;28;20119;-80
2021/12/23 05:31:24;;;;;;;21.85;10.13;;;-2.20;88.70;;;;;;5033018;28;20025;-78
2021/12/23 05:33:51;;;;;;;24.80;10.32;;;-2.20;88.60;;;;;;5033062;28;20028;-77
2021/12/23 05:36:19;;;;;;;20.83;10.52;;;-2.00;88.60;;;;;;5034870;28;20107;-77
2021/12/23 05:38:47;;;;;;;25.10;10.30;;;-2.00;88.50;;;;;;5019232;28;20075;-79
2021/12/23 05:41:12;;;;;;;20.65;10.18;;;-1.90;88.30;;;;;;5018956;28;20061;-78
2021/12/23 05:43:41;;;;;;;23.80;10.00;;;-1.80;88.00;;;;;;5019144;28;20504;-78
2021/12/23 05:46:07;;;;;;;20.35;9.35;;;-1.70;87.60;;;;;;5037103;28;20083;-79
2021/12/23 05:48:35;;;;;;;21.83;9.68;;;-1.70;87.60;;;;;;5019051;28;20026;-77
2021/12/23 05:51:01;;;;;;;23.98;10.88;;;-1.60;87.30;;;;;;5018969;28;20104;-76
2021/12/23 05:53:29;;;;;;;20.05;9.95;;;-1.60;86.90;;;;;;5036703;28;20415;-78
2021/12/23 05:55:57;;;;;;;16.02;8.80;;;-1.50;86.80;;;;;;5018840;28;20052;-79
2021/12/23 05:58:25;;;;;;;27.27;11.98;;;-1.50;86.00;;;;;;5018942;28;20025;-77
2021/12/23 06:00:53;;;;;;;23.90;11.48;;;-1.50;85.80;;;;;;5018611;28;20032;-78
2021/12/23 06:03:20;;;;;;;27.45;13.38;;;-1.50;85.80;;;;;;5019472;28;20076;-78
2021/12/23 06:05:48;;;;;;;31.00;11.88;;;-1.40;85.80;;;;;;5002711;28;20022;-77
2021/12/23 06:08:14;;;;;;;23.95;11.60;;;-1.40;85.70;;;;;;5036530;28;20064;-78
2021/12/23 06:10:41;;;;;;;24.15;12.02;;;-1.40;85.40;;;;;;5002853;28;20108;-78
2021/12/23 06:13:09;;;;;;;27.83;13.93;;;-1.40;85.30;;;;;;5036577;28;20088;-78
2021/12/23 06:15:37;;;;;;;30.45;14.73;;;-1.40;85.00;;;;;;5036873;28;20033;-78
2021/12/23 06:18:03;;;;;;;37.03;15.93;;;-1.40;85.10;;;;;;5002488;28;20475;-77
2021/12/23 06:20:32;;;;;;;42.42;18.17;;;-1.40;85.00;;;;;;5036572;28;20022;-78
2021/12/23 06:23:00;;;;;;;43.50;19.05;;;-1.40;84.60;;;;;;5002504;28;20490;-77
2021/12/23 06:25:28;;;;;;;40.28;18.15;;;-1.50;84.20;;;;;;5036211;28;20018;-77
2021/12/23 06:27:53;;;;;;;43.25;18.17;;;-1.50;84.30;;;;;;5018258;28;20075;-77
2021/12/23 06:30:21;;;;;;;37.13;17.83;;;-1.50;85.20;;;;;;5035700;28;20100;-76
2021/12/23 06:32:54;;;;;;;38.97;18.02;;;-1.50;84.50;;;;;;5036500;28;20022;-78
2021/12/23 06:35:25;;;;;;;42.42;17.65;;;-1.50;84.50;;;;;;5018992;28;20038;-77
2021/12/23 06:37:51;;;;;;;45.92;17.65;;;-1.60;84.70;;;;;;5019124;28;20029;-77
2021/12/23 06:40:17;;;;;;;39.88;16.63;;;-1.60;85.00;;;;;;5018854;28;20029;-78
2021/12/23 06:42:43;;;;;;;31.98;16.55;;;-1.60;85.20;;;;;;5018222;28;20030;-78
2021/12/23 06:45:09;;;;;;;35.80;16.75;;;-1.60;85.00;;;;;;5001766;28;20029;-78
2021/12/23 06:47:36;;;;;;;44.42;16.23;;;-1.50;85.10;;;;;;5034780;28;20025;-76
2021/12/23 06:50:04;;;;;;;34.60;16.10;;;-1.50;85.20;;;;;;5001041;28;20051;-76
2021/12/23 06:52:45;;;;;;;35.15;16.75;;;-1.40;85.00;;;;;;5035670;28;20025;-78
2021/12/23 06:55:26;;;;;;;35.40;16.30;;;-1.40;85.00;;;;;;5035585;28;20030;-77
2021/12/23 06:57:57;;;;;;;34.92;15.18;;;-1.30;85.80;;;;;;5035637;28;20136;-78
2021/12/23 07:00:25;;;;;;;30.45;15.07;;;-1.30;84.80;;;;;;5035751;28;20032;-77
2021/12/23 07:02:52;;;;;;;37.05;16.13;;;-1.20;84.70;;;;;;5035650;28;20033;-76
2021/12/23 07:05:22;;;;;;;40.20;16.17;;;-1.20;84.90;;;;;;5001562;28;20427;-78
2021/12/23 07:08:15;;;;;;;34.47;14.63;;;-1.20;85.00;;;;;;5008139;28;20044;-78
2021/12/23 07:10:42;;;;;;;30.52;15.43;;;-1.20;85.40;;;;;;4997236;28;20109;-78
2021/12/23 07:13:10;;;;;;;36.65;16.42;;;-1.20;86.00;;;;;;5015864;28;20034;-79
2021/12/23 07:15:36;;;;;;;29.63;16.67;;;-1.10;86.40;;;;;;5015467;28;20506;-77
2021/12/23 07:18:02;;;;;;;33.83;15.88;;;-1.10;86.60;;;;;;4998448;28;20129;-77
2021/12/23 07:20:29;;;;;;;31.02;15.82;;;-1.00;86.90;;;;;;4997449;28;20505;-78
2021/12/23 07:22:55;;;;;;;28.35;15.55;;;-1.00;86.90;;;;;;4997606;28;20485;-77
2021/12/23 07:25:21;;;;;;;37.33;17.33;;;-0.90;86.80;;;;;;5015362;28;20037;-77
2021/12/23 07:27:47;;;;;;;47.97;18.20;;;-0.80;86.90;;;;;;5015174;28;20032;-77
2021/12/23 07:30:16;;;;;;;31.85;16.33;;;-0.70;86.70;;;;;;5015677;28;20025;-76
2021/12/23 07:32:42;;;;;;;35.55;17.60;;;-0.70;86.60;;;;;;4997462;28;20189;-75
2021/12/23 07:35:08;;;;;;;40.55;17.35;;;-0.60;86.30;;;;;;5015385;28;20018;-76
2021/12/23 07:37:35;;;;;;;29.08;14.98;;;-0.50;86.00;;;;;;5015424;28;20053;-74
2021/12/23 07:40:02;;;;;;;31.23;15.55;;;-0.50;85.60;;;;;;5015580;28;20041;-76
2021/12/23 07:42:30;;;;;;;34.00;13.50;;;-0.40;85.40;;;;;;5015179;28;20112;-76
2021/12/23 07:44:56;;;;;;;34.15;14.82;;;-0.40;85.40;;;;;;5014878;28;20046;-75
2021/12/23 07:47:23;;;;;;;34.22;15.15;;;-0.30;85.20;;;;;;5015105;28;20521;-75
2021/12/23 07:49:48;;;;;;;25.48;12.68;;;-0.30;84.80;;;;;;4997340;28;20021;-75
2021/12/23 07:52:14;;;;;;;26.23;14.80;;;-0.20;84.60;;;;;;4997485;28;20052;-76
2021/12/23 07:54:40;;;;;;;31.27;13.38;;;-0.20;84.20;;;;;;5014610;28;20374;-76
2021/12/23 07:57:06;;;;;;;29.88;13.27;;;-0.20;84.20;;;;;;5014808;28;20113;-75
2021/12/23 07:59:32;;;;;;;27.15;13.75;;;-0.10;84.80;;;;;;5014310;28;20117;-75
2021/12/23 08:01:58;;;;;;;28.67;13.73;;;0.00;84.30;;;;;;5014776;28;20033;-75
2021/12/23 08:04:25;;;;;;;26.38;14.00;;;0.00;83.50;;;;;;5014902;28;20100;-78
2021/12/23 08:06:57;;;;;;;20.90;11.38;;;0.10;83.10;;;;;;5016416;28;20025;-78
2021/12/23 08:09:24;;;;;;;24.85;13.02;;;0.10;83.20;;;;;;5034430;28;20112;-78
2021/12/23 08:11:50;;;;;;;27.30;13.05;;;0.10;83.60;;;;;;5034201;28;20029;-75
2021/12/23 08:14:16;;;;;;;29.85;14.77;;;0.20;83.80;;;;;;5033838;28;20075;-75
2021/12/23 08:16:43;;;;;;;24.95;12.70;;;0.30;83.10;;;;;;5034221;28;20382;-74
2021/12/23 08:19:09;;;;;;;28.02;13.38;;;0.40;82.00;;;;;;5034037;28;20078;-75
2021/12/23 08:21:35;;;;;;;27.73;13.50;;;0.40;81.70;;;;;;5033845;28;20034;-74
2021/12/23 08:24:00;;;;;;;23.05;12.45;;;0.40;81.10;;;;;;5016401;28;20517;-77
2021/12/23 08:26:29;;;;;;;27.55;13.52;;;0.30;81.40;;;;;;5033909;28;20451;-75
2021/12/23 08:28:56;;;;;;;23.42;12.02;;;0.30;81.50;;;;;;5033947;28;20347;-73
2021/12/23 08:31:22;;;;;;;24.77;14.18;;;0.30;81.80;;;;;;5016142;28;20037;-74
2021/12/23 08:33:48;;;;;;;25.90;13.20;;;0.30;82.10;;;;;;5015940;28;20030;-74
2021/12/23 08:36:14;;;;;;;22.50;12.15;;;0.20;82.00;;;;;;5033761;28;20026;-75
2021/12/23 08:38:41;;;;;;;22.80;11.43;;;0.20;82.20;;;;;;5033802;28;20036;-75
2021/12/23 08:41:08;;;;;;;23.33;12.70;;;0.20;81.90;;;;;;5033559;28;20033;-76
2021/12/23 08:43:33;;;;;;;21.13;11.38;;;0.20;82.00;;;;;;5033425;28;20379;-77
2021/12/23 08:45:59;;;;;;;25.60;12.50;;;0.20;82.10;;;;;;5033630;28;20487;-74
2021/12/23 08:48:25;;;;;;;25.45;13.63;;;0.20;82.30;;;;;;5034105;28;20021;-74
2021/12/23 08:50:51;;;;;;;23.75;13.07;;;0.20;83.10;;;;;;5033943;28;20025;-77
2021/12/23 08:53:17;;;;;;;27.92;13.93;;;0.30;82.10;;;;;;5033868;28;20025;-77
2021/12/23 08:55:43;;;;;;;26.30;13.10;;;0.30;82.20;;;;;;5035051;28;20025;-78
2021/12/23 08:58:08;;;;;;;26.90;14.85;;;0.30;82.20;;;;;;5014023;28;20810;-76
2021/12/23 09:00:37;;;;;;;28.27;15.10;;;0.30;82.30;;;;;;5026987;28;20030;-74
2021/12/23 09:03:05;;;;;;;26.58;14.30;;;0.30;82.40;;;;;;5028108;28;20124;-74
2021/12/23 09:05:32;;;;;;;25.45;12.07;;;0.30;82.10;;;;;;5025576;28;20238;-75
2021/12/23 09:07:58;;;;;;;33.78;14.73;;;0.40;81.80;;;;;;4982930;28;21071;-74
2021/12/23 09:10:24;;;;;;;27.90;14.57;;;0.40;81.60;;;;;;5024638;28;20467;-75
2021/12/23 09:12:50;;;;;;;29.92;13.68;;;0.40;81.50;;;;;;5023639;28;20113;-75
2021/12/23 09:15:17;;;;;;;27.00;13.60;;;0.50;81.50;;;;;;5032870;28;20032;-76
2021/12/23 09:17:43;;;;;;;30.80;16.90;;;0.50;81.30;;;;;;5032819;28;20375;-76
2021/12/23 09:20:11;;;;;;;27.45;14.30;;;0.50;81.50;;;;;;5015088;28;20029;-76
2021/12/23 09:22:37;;;;;;;31.00;15.02;;;0.60;80.70;;;;;;5032331;28;20141;-74
2021/12/23 09:25:12;;;;;;;27.50;15.30;;;0.60;80.70;;;;;;5031858;28;20381;-75
2021/12/23 09:27:55;;;;;;;26.75;14.55;;;0.60;80.70;;;;;;5018193;28;20125;-75
2021/12/23 09:33:06;;;;;;;30.77;16.08;;;0.60;80.60;;;;;;5033052;28;20096;-73
2021/12/23 09:35:32;;;;;;;33.88;16.90;;;0.60;80.80;;;;;;5014950;28;20034;-75
2021/12/23 09:37:59;;;;;;;31.83;15.45;;;0.70;81.20;;;;;;5014350;28;20041;-73
2021/12/23 09:40:29;;;;;;;34.15;19.27;;;0.70;81.10;;;;;;5032913;28;20056;-73
2021/12/23 09:42:57;;;;;;;34.05;16.38;;;0.70;81.00;;;;;;5032390;28;20042;-73
2021/12/23 09:45:23;;;;;;;40.25;18.10;;;0.80;80.90;;;;;;5032677;28;20031;-75
2021/12/23 09:47:49;;;;;;;38.53;17.92;;;0.80;81.40;;;;;;5014650;28;20042;-76
2021/12/23 09:50:19;;;;;;;37.67;17.08;;;0.80;81.10;;;;;;5032623;28;20110;-76
2021/12/23 09:52:48;;;;;;;36.83;16.60;;;0.90;81.50;;;;;;5027476;28;20406;-76
2021/12/23 09:55:17;;;;;;;32.00;17.17;;;0.90;80.70;;;;;;4998483;28;20411;-75
2021/12/23 09:57:45;;;;;;;38.08;18.65;;;1.00;80.50;;;;;;5032491;28;20052;-77
2021/12/23 10:00:11;;;;;;;34.08;16.85;;;1.00;80.00;;;;;;5015001;28;20386;-76
2021/12/23 10:02:40;;;;;;;33.10;16.35;;;1.00;79.60;;;;;;5032474;28;20037;-76
2021/12/23 10:05:09;;;;;;;37.92;19.30;;;1.00;79.60;;;;;;5030677;28;20104;-76
2021/12/23 10:07:35;;;;;;;36.72;17.80;;;1.00;79.70;;;;;;5011687;28;20072;-77
2021/12/23 10:10:11;;;;;;;34.08;17.73;;;1.00;79.70;;;;;;5012788;28;20061;-76
2021/12/23 10:38:13;;;;;;;34.22;16.83;;;1.30;78.50;;;;;;5035887;28;20064;-75
2021/12/23 10:40:44;;;;;;;40.20;17.80;;;1.40;78.20;;;;;;5016369;28;20033;-76
2021/12/23 10:43:25;;;;;;;31.30;17.23;;;1.40;78.00;;;;;;5018007;28;20096;-78
2021/12/23 10:45:56;;;;;;;36.27;18.17;;;1.40;78.00;;;;;;5017720;28;20049;-75
2021/12/23 10:48:25;;;;;;;38.70;19.27;;;1.40;77.90;;;;;;5035245;28;20026;-75
2021/12/23 10:50:58;;;;;;;33.72;17.02;;;1.50;78.40;;;;;;5035338;28;20399;-73
2021/12/23 10:54:08;;;;;;;35.17;16.42;;;1.60;77.70;;;;;;5034169;28;20022;-75
2021/12/23 10:59:26;;;;;;;34.05;16.15;;;1.60;77.30;;;;;;5033890;28;20109;-75
2021/12/23 11:02:20;;;;;;;32.78;16.70;;;1.60;76.70;;;;;;5033076;28;20029;-75
2021/12/23 11:05:21;;;;;;;38.05;19.13;;;1.60;76.70;;;;;;5033165;28;20422;-75
2021/12/23 11:08:19;;;;;;;30.48;17.30;;;1.60;77.30;;;;;;5033272;28;20155;-76
2021/12/23 11:35:44;;;;;;;34.00;17.88;;;1.80;76.10;;;;;;5034751;28;20556;-75
2021/12/23 11:38:23;;;;;;;31.25;17.55;;;1.80;75.60;;;;;;5034750;28;20034;-74
2021/12/23 11:40:53;;;;;;;35.33;17.70;;;1.80;75.30;;;;;;5034752;28;20382;-75
2021/12/23 11:45:50;;;;;;;30.83;16.48;;;1.80;75.90;;;;;;5034661;28;20493;-74
2021/12/23 11:48:16;;;;;;;26.83;16.02;;;1.80;75.80;;;;;;5034647;28;20013;-74
2021/12/23 11:53:27;;;;;;;32.55;17.05;;;1.90;75.70;;;;;;5035001;28;20029;-75
2021/12/23 11:55:54;;;;;;;34.38;17.77;;;1.80;76.10;;;;;;5034664;28;20498;-75
2021/12/23 11:58:25;;;;;;;36.30;18.15;;;1.80;75.70;;;;;;5016624;28;20017;-74
2021/12/23 12:01:06;;;;;;;34.13;16.35;;;1.80;76.10;;;;;;5034211;28;20418;-75
2021/12/23 12:03:51;;;;;;;30.60;16.77;;;1.90;76.50;;;;;;5016559;28;20033;-75
2021/12/23 12:06:20;;;;;;;35.10;16.55;;;1.90;76.50;;;;;;5016709;28;20068;-75
2021/12/23 12:08:46;;;;;;;39.92;19.00;;;1.90;76.60;;;;;;5016372;28;20042;-75
2021/12/23 12:11:18;;;;;;;37.70;18.33;;;1.90;76.70;;;;;;5016503;28;20021;-77
2021/12/23 12:13:44;;;;;;;;;;;1.90;76.70;;;;;;5034476;28;20467;-75
2021/12/23 12:16:35;;;;;;;36.85;20.40;;;1.90;76.90;;;;;;5034091;28;19963;-75
2021/12/23 12:19:03;;;;;;;36.60;18.33;;;1.90;77.10;;;;;;5034338;28;20041;-74
2021/12/23 12:21:32;;;;;;;36.90;19.35;;;2.00;77.10;;;;;;5033760;28;20029;-75
2021/12/23 12:24:13;;;;;;;32.22;17.60;;;2.00;77.00;;;;;;5033787;28;20036;-75
2021/12/23 12:27:14;;;;;;;33.72;19.08;;;2.00;76.50;;;;;;5033850;28;20072;-75
2021/12/23 12:29:40;;;;;;;37.97;18.08;;;2.10;76.60;;;;;;4937689;29;20039;-75
2021/12/23 12:32:05;;;;;;;40.63;20.38;;;2.10;76.80;;;;;;5003875;28;20038;-75
2021/12/23 12:34:34;;;;;;;39.28;18.95;;;2.10;76.00;;;;;;5034324;28;20064;-75
2021/12/23 12:37:01;;;;;;;35.10;17.67;;;2.20;75.80;;;;;;5033602;28;20109;-74
2021/12/23 12:39:41;;;;;;;32.53;18.17;;;2.20;75.70;;;;;;5033873;28;20044;-75
2021/12/23 12:42:11;;;;;;;43.28;21.35;;;2.30;75.30;;;;;;5015730;28;20040;-74
2021/12/23 12:45:00;;;;;;;40.20;21.17;;;2.30;75.60;;;;;;5015604;28;20018;-76
2021/12/23 12:47:30;;;;;;;45.20;21.80;;;2.30;75.70;;;;;;5033141;28;20120;-74
2021/12/23 12:50:14;;;;;;;37.58;18.95;;;2.30;75.80;;;;;;5033607;28;20097;-75
2021/12/23 12:52:46;;;;;;;37.25;20.48;;;2.40;75.10;;;;;;5033653;28;20025;-75
2021/12/23 12:55:17;;;;;;;38.88;20.40;;;2.40;75.20;;;;;;5033550;28;20026;-75
2021/12/23 12:57:48;;;;;;;39.20;20.35;;;2.40;74.90;;;;;;5033741;28;20033;-74
2021/12/23 13:00:39;;;;;;;43.33;22.40;;;2.40;74.70;;;;;;5020732;28;20043;-75
2021/12/23 13:03:06;;;;;;;48.55;21.17;;;2.40;75.00;;;;;;5036560;28;20021;-75
2021/12/23 13:05:35;;;;;;;42.20;20.98;;;2.30;75.60;;;;;;5036351;28;20037;-74
2021/12/23 13:08:24;;;;;;;44.20;21.85;;;2.40;75.80;;;;;;5034057;28;20033;-74
2021/12/23 13:10:50;;;;;;;44.08;22.23;;;2.40;75.70;;;;;;5015668;28;20083;-75
2021/12/23 13:13:33;;;;;;;43.10;20.98;;;2.40;75.60;;;;;;5033140;28;20486;-74
2021/12/23 13:16:10;;;;;;;47.97;21.23;;;2.40;75.20;;;;;;5016150;28;20032;-74
2021/12/23 13:18:35;;;;;;;41.38;21.40;;;2.40;75.30;;;;;;5033129;28;20029;-75
2021/12/23 13:21:05;;;;;;;45.67;22.52;;;2.40;75.00;;;;;;5033072;28;20057;-75
2021/12/23 13:23:43;;;;;;;46.03;23.55;;;2.40;75.10;;;;;;5015214;28;20060;-73
2021/12/23 13:26:15;;;;;;;45.90;22.80;;;2.40;75.20;;;;;;5033302;28;20100;-73
2021/12/23 13:28:44;;;;;;;47.28;22.48;;;2.40;74.90;;;;;;5033236;28;20068;-76
2021/12/23 13:31:39;;;;;;;47.47;23.40;;;2.40;74.80;;;;;;5033162;28;20025;-76
2021/12/23 13:34:12;;;;;;;48.08;24.05;;;2.40;75.00;;;;;;5033079;28;20026;-74
2021/12/23 13:36:50;;;;;;;40.63;19.23;;;2.40;75.20;;;;;;5033033;28;20018;-74
2021/12/23 13:39:20;;;;;;;40.95;20.92;;;2.40;75.00;;;;;;5032841;28;20104;-74
2021/12/23 13:41:52;;;;;;;47.30;20.50;;;2.40;75.30;;;;;;5032973;28;20091;-75
2021/12/23 13:44:40;;;;;;;42.88;20.48;;;2.40;75.50;;;;;;5033166;28;20021;-76
2021/12/23 13:47:18;;;;;;;38.88;18.67;;;2.50;75.50;;;;;;5033270;28;20026;-74
2021/12/23 13:49:54;;;;;;;40.13;20.42;;;2.60;75.10;;;;;;5033069;28;20184;-75